sensor_id;sensor_type;location;lat;lon;timestamp;pressure;altitude;pressure_sealevel;temperature
65823;BMP180;52585;47.566;19.056;2023-01-23T00:01:10;101289.40;;;4.80
65823;BMP180;52585;47.566;19.056;2023-01-23T00:03:36;101285.80;;;4.82
65823;BMP180;52585;47.566;19.056;2023-01-23T00:06:07;101287.20;;;4.84
65823;BMP180;52585;47.566;19.056;2023-01-23T00:08:34;101283.80;;;4.80
65823;BMP180;52585;47.566;19.056;2023-01-23T00:11:08;101268.80;;;4.80
65823;BMP180;52585;47.566;19.056;2023-01-23T00:13:35;101259.80;;;4.80
65823;BMP180;52585;47.566;19.056;2023-01-23T00:16:07;101259.80;;;4.78
65823;BMP180;52585;47.566;19.056;2023-01-23T00:18:33;101265.40;;;4.76
65823;BMP180;52585;47.566;19.056;2023-01-23T00:21:09;101258.20;;;4.72
65823;BMP180;52585;47.566;19.056;2023-01-23T00:23:35;101259.40;;;4.78
65823;BMP180;52585;47.566;19.056;2023-01-23T00:26:07;101254.20;;;4.80
65823;BMP180;52585;47.566;19.056;2023-01-23T00:28:33;101248.20;;;4.80
65823;BMP180;52585;47.566;19.056;2023-01-23T00:31:12;101254.80;;;4.80
65823;BMP180;52585;47.566;19.056;2023-01-23T00:33:40;101262.60;;;4.80
65823;BMP180;52585;47.566;19.056;2023-01-23T00:36:08;101257.80;;;4.90
65823;BMP180;52585;47.566;19.056;2023-01-23T00:38:34;101261.00;;;4.90
65823;BMP180;52585;47.566;19.056;2023-01-23T00:41:01;101262.40;;;4.90
65823;BMP180;52585;47.566;19.056;2023-01-23T00:43:28;101261.80;;;4.90
65823;BMP180;52585;47.566;19.056;2023-01-23T00:45:54;101259.20;;;4.90
65823;BMP180;52585;47.566;19.056;2023-01-23T00:48:20;101260.60;;;4.90
65823;BMP180;52585;47.566;19.056;2023-01-23T00:50:46;101263.80;;;4.90
65823;BMP180;52585;47.566;19.056;2023-01-23T00:53:12;101266.20;;;4.90
65823;BMP180;52585;47.566;19.056;2023-01-23T00:55:39;101254.80;;;4.88
65823;BMP180;52585;47.566;19.056;2023-01-23T00:58:05;101255.40;;;4.82
65823;BMP180;52585;47.566;19.056;2023-01-23T01:00:30;101265.20;;;4.80
65823;BMP180;52585;47.566;19.056;2023-01-23T01:02:56;101270.00;;;4.80
65823;BMP180;52585;47.566;19.056;2023-01-23T01:05:22;101263.60;;;4.80
65823;BMP180;52585;47.566;19.056;2023-01-23T01:07:48;101258.20;;;4.80
65823;BMP180;52585;47.566;19.056;2023-01-23T01:10:14;101261.40;;;4.74
65823;BMP180;52585;47.566;19.056;2023-01-23T01:12:40;101262.20;;;4.70
65823;BMP180;52585;47.566;19.056;2023-01-23T01:15:07;101252.80;;;4.70
65823;BMP180;52585;47.566;19.056;2023-01-23T01:17:34;101258.60;;;4.70
65823;BMP180;52585;47.566;19.056;2023-01-23T01:20:02;101266.60;;;4.68
65823;BMP180;52585;47.566;19.056;2023-01-23T01:22:28;101267.80;;;4.60
65823;BMP180;52585;47.566;19.056;2023-01-23T01:24:53;101264.20;;;4.60
65823;BMP180;52585;47.566;19.056;2023-01-23T01:27:19;101256.00;;;4.60
65823;BMP180;52585;47.566;19.056;2023-01-23T01:29:45;101250.40;;;4.60
65823;BMP180;52585;47.566;19.056;2023-01-23T01:32:10;101246.00;;;4.60
65823;BMP180;52585;47.566;19.056;2023-01-23T01:34:36;101248.20;;;4.56
65823;BMP180;52585;47.566;19.056;2023-01-23T01:37:01;101251.80;;;4.50
65823;BMP180;52585;47.566;19.056;2023-01-23T01:39:27;101247.80;;;4.50
65823;BMP180;52585;47.566;19.056;2023-01-23T01:41:52;101247.00;;;4.50
65823;BMP180;52585;47.566;19.056;2023-01-23T01:44:22;101242.00;;;4.50
65823;BMP180;52585;47.566;19.056;2023-01-23T01:46:49;101239.40;;;4.40
65823;BMP180;52585;47.566;19.056;2023-01-23T01:49:28;101235.40;;;4.40
65823;BMP180;52585;47.566;19.056;2023-01-23T01:52:02;101235.00;;;4.40
65823;BMP180;52585;47.566;19.056;2023-01-23T01:57:41;101241.80;;;4.40
65823;BMP180;52585;47.566;19.056;2023-01-23T02:00:14;101246.20;;;4.32
65823;BMP180;52585;47.566;19.056;2023-01-23T02:02:50;101243.20;;;4.30
65823;BMP180;52585;47.566;19.056;2023-01-23T02:05:43;101237.20;;;4.30
65823;BMP180;52585;47.566;19.056;2023-01-23T02:08:21;101236.00;;;4.30
65823;BMP180;52585;47.566;19.056;2023-01-23T02:10:48;101245.40;;;4.30
65823;BMP180;52585;47.566;19.056;2023-01-23T02:13:34;101242.80;;;4.30
65823;BMP180;52585;47.566;19.056;2023-01-23T02:16:28;101242.60;;;4.30
65823;BMP180;52585;47.566;19.056;2023-01-23T02:19:11;101235.00;;;4.24
65823;BMP180;52585;47.566;19.056;2023-01-23T02:21:46;101226.20;;;4.20
65823;BMP180;52585;47.566;19.056;2023-01-23T02:24:59;101228.80;;;4.20
65823;BMP180;52585;47.566;19.056;2023-01-23T02:27:27;101226.20;;;4.20
65823;BMP180;52585;47.566;19.056;2023-01-23T02:29:53;101220.60;;;4.20
65823;BMP180;52585;47.566;19.056;2023-01-23T02:32:21;101225.00;;;4.20
65823;BMP180;52585;47.566;19.056;2023-01-23T02:34:51;101235.00;;;4.20
65823;BMP180;52585;47.566;19.056;2023-01-23T02:37:20;101237.60;;;4.20
65823;BMP180;52585;47.566;19.056;2023-01-23T02:39:48;101235.80;;;4.20
65823;BMP180;52585;47.566;19.056;2023-01-23T02:42:14;101232.60;;;4.20
65823;BMP180;52585;47.566;19.056;2023-01-23T02:44:40;101220.80;;;4.20
65823;BMP180;52585;47.566;19.056;2023-01-23T02:47:07;101219.80;;;4.20
65823;BMP180;52585;47.566;19.056;2023-01-23T02:49:38;101216.40;;;4.20
65823;BMP180;52585;47.566;19.056;2023-01-23T02:52:04;101217.20;;;4.20
65823;BMP180;52585;47.566;19.056;2023-01-23T02:54:31;101216.20;;;4.20
65823;BMP180;52585;47.566;19.056;2023-01-23T02:56:57;101215.20;;;4.20
65823;BMP180;52585;47.566;19.056;2023-01-23T02:59:23;101213.40;;;4.20
65823;BMP180;52585;47.566;19.056;2023-01-23T03:02:08;101213.20;;;4.18
65823;BMP180;52585;47.566;19.056;2023-01-23T03:04:34;101202.80;;;4.14
65823;BMP180;52585;47.566;19.056;2023-01-23T03:07:00;101201.80;;;4.16
65823;BMP180;52585;47.566;19.056;2023-01-23T03:09:26;101196.40;;;4.20
65823;BMP180;52585;47.566;19.056;2023-01-23T03:11:52;101195.20;;;4.20
65823;BMP180;52585;47.566;19.056;2023-01-23T03:14:21;101188.60;;;4.18
65823;BMP180;52585;47.566;19.056;2023-01-23T03:16:47;101189.00;;;4.20
65823;BMP180;52585;47.566;19.056;2023-01-23T03:19:22;101180.60;;;4.20
65823;BMP180;52585;47.566;19.056;2023-01-23T03:21:48;101175.00;;;4.20
65823;BMP180;52585;47.566;19.056;2023-01-23T03:24:15;101174.60;;;4.20
65823;BMP180;52585;47.566;19.056;2023-01-23T03:26:43;101175.40;;;4.20
65823;BMP180;52585;47.566;19.056;2023-01-23T03:29:23;101177.40;;;4.20
65823;BMP180;52585;47.566;19.056;2023-01-23T03:32:09;101183.40;;;4.20
65823;BMP180;52585;47.566;19.056;2023-01-23T03:34:36;101180.20;;;4.14
65823;BMP180;52585;47.566;19.056;2023-01-23T03:37:02;101176.80;;;4.10
65823;BMP180;52585;47.566;19.056;2023-01-23T03:39:28;101177.40;;;4.10
65823;BMP180;52585;47.566;19.056;2023-01-23T03:42:13;101180.20;;;4.10
65823;BMP180;52585;47.566;19.056;2023-01-23T03:44:39;101178.60;;;4.10
65823;BMP180;52585;47.566;19.056;2023-01-23T03:47:05;101177.40;;;4.10
65823;BMP180;52585;47.566;19.056;2023-01-23T03:49:31;101175.20;;;4.10
65823;BMP180;52585;47.566;19.056;2023-01-23T03:51:58;101175.60;;;4.10
65823;BMP180;52585;47.566;19.056;2023-01-23T03:54:25;101172.60;;;4.12
65823;BMP180;52585;47.566;19.056;2023-01-23T03:56:50;101179.20;;;4.14
65823;BMP180;52585;47.566;19.056;2023-01-23T03:59:16;101181.40;;;4.12
65823;BMP180;52585;47.566;19.056;2023-01-23T04:01:41;101177.40;;;4.10
65823;BMP180;52585;47.566;19.056;2023-01-23T04:04:07;101176.20;;;4.10
65823;BMP180;52585;47.566;19.056;2023-01-23T04:06:33;101172.40;;;4.10
65823;BMP180;52585;47.566;19.056;2023-01-23T04:08:58;101174.60;;;4.10
65823;BMP180;52585;47.566;19.056;2023-01-23T04:11:24;101170.80;;;4.10
65823;BMP180;52585;47.566;19.056;2023-01-23T04:13:52;101172.80;;;4.10
65823;BMP180;52585;47.566;19.056;2023-01-23T04:16:18;101175.60;;;4.10
65823;BMP180;52585;47.566;19.056;2023-01-23T04:18:44;101174.40;;;4.10
65823;BMP180;52585;47.566;19.056;2023-01-23T04:21:10;101172.20;;;4.10
65823;BMP180;52585;47.566;19.056;2023-01-23T04:23:35;101175.00;;;4.10
65823;BMP180;52585;47.566;19.056;2023-01-23T04:26:01;101178.60;;;4.10
65823;BMP180;52585;47.566;19.056;2023-01-23T04:28:27;101174.80;;;4.10
65823;BMP180;52585;47.566;19.056;2023-01-23T04:30:52;101179.80;;;4.14
65823;BMP180;52585;47.566;19.056;2023-01-23T04:33:19;101182.20;;;4.14
65823;BMP180;52585;47.566;19.056;2023-01-23T04:36:01;101187.40;;;4.20
65823;BMP180;52585;47.566;19.056;2023-01-23T04:38:28;101182.80;;;4.20
65823;BMP180;52585;47.566;19.056;2023-01-23T04:40:55;101177.80;;;4.20
65823;BMP180;52585;47.566;19.056;2023-01-23T04:43:21;101178.20;;;4.20
65823;BMP180;52585;47.566;19.056;2023-01-23T04:45:50;101175.80;;;4.20
65823;BMP180;52585;47.566;19.056;2023-01-23T04:48:16;101178.40;;;4.20
65823;BMP180;52585;47.566;19.056;2023-01-23T04:50:42;101176.20;;;4.20
65823;BMP180;52585;47.566;19.056;2023-01-23T04:53:08;101181.80;;;4.20
65823;BMP180;52585;47.566;19.056;2023-01-23T04:55:34;101184.40;;;4.20
65823;BMP180;52585;47.566;19.056;2023-01-23T04:58:00;101183.00;;;4.20
65823;BMP180;52585;47.566;19.056;2023-01-23T05:00:27;101182.60;;;4.20
65823;BMP180;52585;47.566;19.056;2023-01-23T05:02:55;101186.20;;;4.20
65823;BMP180;52585;47.566;19.056;2023-01-23T05:05:21;101189.60;;;4.20
65823;BMP180;52585;47.566;19.056;2023-01-23T05:07:48;101189.60;;;4.20
65823;BMP180;52585;47.566;19.056;2023-01-23T05:10:15;101192.80;;;4.22
65823;BMP180;52585;47.566;19.056;2023-01-23T05:12:41;101193.20;;;4.20
65823;BMP180;52585;47.566;19.056;2023-01-23T05:15:09;101202.60;;;4.30
65823;BMP180;52585;47.566;19.056;2023-01-23T05:17:35;101200.60;;;4.24
65823;BMP180;52585;47.566;19.056;2023-01-23T05:20:01;101206.00;;;4.28
65823;BMP180;52585;47.566;19.056;2023-01-23T05:22:26;101204.80;;;4.20
65823;BMP180;52585;47.566;19.056;2023-01-23T05:24:52;101207.80;;;4.20
65823;BMP180;52585;47.566;19.056;2023-01-23T05:27:17;101208.60;;;4.20
65823;BMP180;52585;47.566;19.056;2023-01-23T05:29:43;101213.20;;;4.24
65823;BMP180;52585;47.566;19.056;2023-01-23T05:32:09;101216.00;;;4.20
65823;BMP180;52585;47.566;19.056;2023-01-23T05:34:34;101216.40;;;4.20
65823;BMP180;52585;47.566;19.056;2023-01-23T05:37:00;101209.00;;;4.20
65823;BMP180;52585;47.566;19.056;2023-01-23T05:39:26;101212.40;;;4.22
65823;BMP180;52585;47.566;19.056;2023-01-23T05:41:51;101215.40;;;4.30
65823;BMP180;52585;47.566;19.056;2023-01-23T05:44:17;101214.20;;;4.28
65823;BMP180;52585;47.566;19.056;2023-01-23T05:46:42;101216.00;;;4.30
65823;BMP180;52585;47.566;19.056;2023-01-23T05:49:08;101220.60;;;4.30
65823;BMP180;52585;47.566;19.056;2023-01-23T05:51:34;101221.00;;;4.30
65823;BMP180;52585;47.566;19.056;2023-01-23T05:54:01;101221.60;;;4.30
65823;BMP180;52585;47.566;19.056;2023-01-23T05:56:27;101222.40;;;4.28
65823;BMP180;52585;47.566;19.056;2023-01-23T05:58:53;101226.20;;;4.30
65823;BMP180;52585;47.566;19.056;2023-01-23T06:01:19;101223.80;;;4.28
65823;BMP180;52585;47.566;19.056;2023-01-23T06:03:46;101230.20;;;4.30
65823;BMP180;52585;47.566;19.056;2023-01-23T06:06:13;101231.80;;;4.30
65823;BMP180;52585;47.566;19.056;2023-01-23T06:08:38;101234.60;;;4.30
65823;BMP180;52585;47.566;19.056;2023-01-23T06:11:05;101237.40;;;4.30
65823;BMP180;52585;47.566;19.056;2023-01-23T06:13:30;101237.80;;;4.30
65823;BMP180;52585;47.566;19.056;2023-01-23T06:15:56;101238.80;;;4.30
65823;BMP180;52585;47.566;19.056;2023-01-23T06:18:23;101242.80;;;4.30
65823;BMP180;52585;47.566;19.056;2023-01-23T06:20:49;101246.40;;;4.30
65823;BMP180;52585;47.566;19.056;2023-01-23T06:23:15;101249.20;;;4.30
65823;BMP180;52585;47.566;19.056;2023-01-23T06:25:41;101254.40;;;4.30
65823;BMP180;52585;47.566;19.056;2023-01-23T06:28:08;101260.00;;;4.32
65823;BMP180;52585;47.566;19.056;2023-01-23T06:30:33;101270.00;;;4.30
65823;BMP180;52585;47.566;19.056;2023-01-23T06:32:59;101264.20;;;4.30
65823;BMP180;52585;47.566;19.056;2023-01-23T06:35:25;101278.60;;;4.30
65823;BMP180;52585;47.566;19.056;2023-01-23T06:37:50;101277.40;;;4.30
65823;BMP180;52585;47.566;19.056;2023-01-23T06:40:16;101283.00;;;4.30
65823;BMP180;52585;47.566;19.056;2023-01-23T06:42:42;101282.40;;;4.30
65823;BMP180;52585;47.566;19.056;2023-01-23T06:45:10;101283.00;;;4.30
65823;BMP180;52585;47.566;19.056;2023-01-23T06:47:36;101292.60;;;4.30
65823;BMP180;52585;47.566;19.056;2023-01-23T06:50:03;101293.40;;;4.30
65823;BMP180;52585;47.566;19.056;2023-01-23T06:52:29;101293.40;;;4.30
65823;BMP180;52585;47.566;19.056;2023-01-23T06:54:55;101290.00;;;4.30
65823;BMP180;52585;47.566;19.056;2023-01-23T06:57:21;101289.00;;;4.30
65823;BMP180;52585;47.566;19.056;2023-01-23T06:59:47;101291.60;;;4.30
65823;BMP180;52585;47.566;19.056;2023-01-23T07:02:13;101287.60;;;4.30
65823;BMP180;52585;47.566;19.056;2023-01-23T07:04:38;101289.40;;;4.32
65823;BMP180;52585;47.566;19.056;2023-01-23T07:07:04;101291.60;;;4.38
65823;BMP180;52585;47.566;19.056;2023-01-23T07:09:30;101291.60;;;4.40
65823;BMP180;52585;47.566;19.056;2023-01-23T07:11:56;101298.00;;;4.40
65823;BMP180;52585;47.566;19.056;2023-01-23T07:14:22;101304.20;;;4.40
65823;BMP180;52585;47.566;19.056;2023-01-23T07:16:47;101304.60;;;4.40
65823;BMP180;52585;47.566;19.056;2023-01-23T07:19:13;101303.20;;;4.40
65823;BMP180;52585;47.566;19.056;2023-01-23T07:21:38;101312.60;;;4.48
65823;BMP180;52585;47.566;19.056;2023-01-23T07:24:05;101318.80;;;4.50
65823;BMP180;52585;47.566;19.056;2023-01-23T07:26:30;101319.00;;;4.50
65823;BMP180;52585;47.566;19.056;2023-01-23T07:28:57;101321.40;;;4.60
65823;BMP180;52585;47.566;19.056;2023-01-23T07:31:22;101332.40;;;4.60
65823;BMP180;52585;47.566;19.056;2023-01-23T07:33:48;101326.60;;;4.60
65823;BMP180;52585;47.566;19.056;2023-01-23T07:36:14;101329.20;;;4.62
65823;BMP180;52585;47.566;19.056;2023-01-23T07:38:39;101329.60;;;4.70
65823;BMP180;52585;47.566;19.056;2023-01-23T07:41:06;101333.00;;;4.70
65823;BMP180;52585;47.566;19.056;2023-01-23T07:43:31;101329.60;;;4.74
65823;BMP180;52585;47.566;19.056;2023-01-23T07:46:01;101331.20;;;4.80
65823;BMP180;52585;47.566;19.056;2023-01-23T07:48:27;101332.80;;;4.80
65823;BMP180;52585;47.566;19.056;2023-01-23T07:50:54;101329.80;;;4.86
65823;BMP180;52585;47.566;19.056;2023-01-23T07:53:20;101329.40;;;4.90
65823;BMP180;52585;47.566;19.056;2023-01-23T07:55:45;101328.00;;;4.92
65823;BMP180;52585;47.566;19.056;2023-01-23T07:58:11;101333.40;;;5.00
65823;BMP180;52585;47.566;19.056;2023-01-23T08:00:37;101333.60;;;5.10
65823;BMP180;52585;47.566;19.056;2023-01-23T08:03:03;101335.40;;;5.10
65823;BMP180;52585;47.566;19.056;2023-01-23T08:05:28;101334.20;;;5.18
65823;BMP180;52585;47.566;19.056;2023-01-23T08:07:54;101335.60;;;5.22
65823;BMP180;52585;47.566;19.056;2023-01-23T08:10:20;101341.60;;;5.30
65823;BMP180;52585;47.566;19.056;2023-01-23T08:12:45;101343.20;;;5.30
65823;BMP180;52585;47.566;19.056;2023-01-23T08:15:11;101344.80;;;5.40
65823;BMP180;52585;47.566;19.056;2023-01-23T08:17:36;101341.40;;;5.40
65823;BMP180;52585;47.566;19.056;2023-01-23T08:20:03;101339.20;;;5.50
65823;BMP180;52585;47.566;19.056;2023-01-23T08:22:29;101338.60;;;5.52
65823;BMP180;52585;47.566;19.056;2023-01-23T08:24:54;101335.80;;;5.60
65823;BMP180;52585;47.566;19.056;2023-01-23T08:27:20;101335.60;;;5.64
65823;BMP180;52585;47.566;19.056;2023-01-23T08:29:45;101340.60;;;5.70
65823;BMP180;52585;47.566;19.056;2023-01-23T08:32:11;101339.40;;;5.70
65823;BMP180;52585;47.566;19.056;2023-01-23T08:34:37;101345.60;;;5.80
65823;BMP180;52585;47.566;19.056;2023-01-23T08:37:02;101354.60;;;5.80
65823;BMP180;52585;47.566;19.056;2023-01-23T08:39:28;101347.60;;;5.84
65823;BMP180;52585;47.566;19.056;2023-01-23T08:41:53;101346.60;;;5.90
65823;BMP180;52585;47.566;19.056;2023-01-23T08:44:19;101350.40;;;5.90
65823;BMP180;52585;47.566;19.056;2023-01-23T08:46:45;101348.60;;;5.98
65823;BMP180;52585;47.566;19.056;2023-01-23T08:49:11;101348.00;;;6.00
65823;BMP180;52585;47.566;19.056;2023-01-23T08:51:37;101348.60;;;6.08
65823;BMP180;52585;47.566;19.056;2023-01-23T08:54:03;101347.00;;;6.10
65823;BMP180;52585;47.566;19.056;2023-01-23T08:56:30;101353.40;;;6.14
65823;BMP180;52585;47.566;19.056;2023-01-23T08:58:56;101354.20;;;6.20
65823;BMP180;52585;47.566;19.056;2023-01-23T09:01:25;101352.00;;;6.20
65823;BMP180;52585;47.566;19.056;2023-01-23T09:03:52;101348.60;;;6.30
65823;BMP180;52585;47.566;19.056;2023-01-23T09:06:20;101349.00;;;6.30
65823;BMP180;52585;47.566;19.056;2023-01-23T09:08:46;101353.20;;;6.34
65823;BMP180;52585;47.566;19.056;2023-01-23T09:11:13;101349.20;;;6.40
65823;BMP180;52585;47.566;19.056;2023-01-23T09:13:40;101344.80;;;6.40
65823;BMP180;52585;47.566;19.056;2023-01-23T09:16:07;101345.20;;;6.44
65823;BMP180;52585;47.566;19.056;2023-01-23T09:18:33;101348.40;;;6.50
65823;BMP180;52585;47.566;19.056;2023-01-23T09:20:59;101354.20;;;6.50
65823;BMP180;52585;47.566;19.056;2023-01-23T09:23:25;101356.40;;;6.50
65823;BMP180;52585;47.566;19.056;2023-01-23T09:25:50;101352.80;;;6.54
65823;BMP180;52585;47.566;19.056;2023-01-23T09:28:16;101359.60;;;6.50
65823;BMP180;52585;47.566;19.056;2023-01-23T09:30:42;101353.40;;;6.50
65823;BMP180;52585;47.566;19.056;2023-01-23T09:33:08;101351.60;;;6.54
65823;BMP180;52585;47.566;19.056;2023-01-23T09:35:34;101351.60;;;6.58
65823;BMP180;52585;47.566;19.056;2023-01-23T09:38:00;101348.20;;;6.60
65823;BMP180;52585;47.566;19.056;2023-01-23T09:40:45;101350.00;;;6.66
65823;BMP180;52585;47.566;19.056;2023-01-23T09:43:23;101348.60;;;6.70
65823;BMP180;52585;47.566;19.056;2023-01-23T09:46:19;101344.80;;;6.80
65823;BMP180;52585;47.566;19.056;2023-01-23T09:48:58;101344.40;;;6.80
65823;BMP180;52585;47.566;19.056;2023-01-23T09:54:13;101341.80;;;6.90
65823;BMP180;52585;47.566;19.056;2023-01-23T09:56:44;101345.40;;;6.94
65823;BMP180;52585;47.566;19.056;2023-01-23T10:01:36;101351.80;;;7.00
65823;BMP180;52585;47.566;19.056;2023-01-23T10:04:04;101345.20;;;7.06
65823;BMP180;52585;47.566;19.056;2023-01-23T10:09:47;101341.40;;;7.10
65823;BMP180;52585;47.566;19.056;2023-01-23T10:12:39;101345.60;;;7.20
65823;BMP180;52585;47.566;19.056;2023-01-23T10:26:19;101347.20;;;7.50
65823;BMP180;52585;47.566;19.056;2023-01-23T10:28:46;101352.60;;;7.50
65823;BMP180;52585;47.566;19.056;2023-01-23T10:32:07;101345.80;;;7.60
65823;BMP180;52585;47.566;19.056;2023-01-23T10:34:54;101344.00;;;7.66
65823;BMP180;52585;47.566;19.056;2023-01-23T10:37:52;101343.40;;;7.70
65823;BMP180;52585;47.566;19.056;2023-01-23T10:40:23;101342.60;;;7.80
65823;BMP180;52585;47.566;19.056;2023-01-23T10:43:18;101344.20;;;7.80
65823;BMP180;52585;47.566;19.056;2023-01-23T10:45:47;101341.00;;;7.90
65823;BMP180;52585;47.566;19.056;2023-01-23T10:48:52;101343.00;;;7.94
65823;BMP180;52585;47.566;19.056;2023-01-23T10:51:29;101337.00;;;8.00
65823;BMP180;52585;47.566;19.056;2023-01-23T10:59:38;101329.80;;;8.24
65823;BMP180;52585;47.566;19.056;2023-01-23T11:02:16;101329.00;;;8.30
65823;BMP180;52585;47.566;19.056;2023-01-23T11:04:46;101324.00;;;8.46
65823;BMP180;52585;47.566;19.056;2023-01-23T11:07:22;101315.60;;;8.52
65823;BMP180;52585;47.566;19.056;2023-01-23T11:10:25;101317.60;;;8.60
65823;BMP180;52585;47.566;19.056;2023-01-23T11:12:54;101311.60;;;8.60
65823;BMP180;52585;47.566;19.056;2023-01-23T11:15:32;101312.20;;;8.60
65823;BMP180;52585;47.566;19.056;2023-01-23T11:18:00;101310.20;;;8.62
65823;BMP180;52585;47.566;19.056;2023-01-23T11:20:39;101311.60;;;8.70
65823;BMP180;52585;47.566;19.056;2023-01-23T11:25:35;101310.80;;;8.70
65823;BMP180;52585;47.566;19.056;2023-01-23T11:28:33;101310.20;;;8.80
65823;BMP180;52585;47.566;19.056;2023-01-23T11:38:52;101306.40;;;9.20
65823;BMP180;52585;47.566;19.056;2023-01-23T11:41:23;101298.80;;;9.20
65823;BMP180;52585;47.566;19.056;2023-01-23T11:43:52;101298.80;;;9.30
65823;BMP180;52585;47.566;19.056;2023-01-23T11:52:17;101290.00;;;9.38
65823;BMP180;52585;47.566;19.056;2023-01-23T11:55:00;101292.80;;;9.40
65823;BMP180;52585;47.566;19.056;2023-01-23T11:57:42;101290.60;;;9.40
65823;BMP180;52585;47.566;19.056;2023-01-23T12:00:35;101287.60;;;9.42
65823;BMP180;52585;47.566;19.056;2023-01-23T12:11:31;101289.40;;;9.50
65823;BMP180;52585;47.566;19.056;2023-01-23T12:14:20;101286.40;;;9.50
65823;BMP180;52585;47.566;19.056;2023-01-23T12:23:05;101281.80;;;9.60
65823;BMP180;52585;47.566;19.056;2023-01-23T12:25:38;101290.40;;;9.60
65823;BMP180;52585;47.566;19.056;2023-01-23T12:40:45;101284.20;;;9.60
65823;BMP180;52585;47.566;19.056;2023-01-23T12:43:25;101282.60;;;9.60
65823;BMP180;52585;47.566;19.056;2023-01-23T12:46:00;101283.40;;;9.60
65823;BMP180;52585;47.566;19.056;2023-01-23T12:48:46;101282.60;;;9.70
65823;BMP180;52585;47.566;19.056;2023-01-23T12:51:21;101278.80;;;9.70
65823;BMP180;52585;47.566;19.056;2023-01-23T12:53:54;101279.60;;;9.80
65823;BMP180;52585;47.566;19.056;2023-01-23T12:56:34;101280.00;;;9.80
65823;BMP180;52585;47.566;19.056;2023-01-23T12:59:09;101278.40;;;9.80
65823;BMP180;52585;47.566;19.056;2023-01-23T13:11:38;101288.80;;;9.70
65823;BMP180;52585;47.566;19.056;2023-01-23T13:14:16;101294.00;;;9.76
65823;BMP180;52585;47.566;19.056;2023-01-23T13:16:48;101296.00;;;9.80
65823;BMP180;52585;47.566;19.056;2023-01-23T13:19:31;101294.60;;;9.80
65823;BMP180;52585;47.566;19.056;2023-01-23T13:22:23;101300.20;;;9.80
65823;BMP180;52585;47.566;19.056;2023-01-23T13:25:16;101296.20;;;9.80
65823;BMP180;52585;47.566;19.056;2023-01-23T13:27:56;101294.00;;;9.80
65823;BMP180;52585;47.566;19.056;2023-01-23T13:32:48;101297.20;;;9.90
65823;BMP180;52585;47.566;19.056;2023-01-23T13:44:16;101301.80;;;9.90
65823;BMP180;52585;47.566;19.056;2023-01-23T13:52:23;101307.40;;;9.90
65823;BMP180;52585;47.566;19.056;2023-01-23T13:55:38;101314.60;;;9.88
65823;BMP180;52585;47.566;19.056;2023-01-23T13:58:26;101309.20;;;9.80
65823;BMP180;52585;47.566;19.056;2023-01-23T14:01:09;101309.40;;;9.80
65823;BMP180;52585;47.566;19.056;2023-01-23T14:04:04;101310.40;;;9.82
65823;BMP180;52585;47.566;19.056;2023-01-23T14:06:50;101312.20;;;9.80
65823;BMP180;52585;47.566;19.056;2023-01-23T14:09:29;101310.00;;;9.84
65823;BMP180;52585;47.566;19.056;2023-01-23T14:12:02;101312.40;;;9.86
65823;BMP180;52585;47.566;19.056;2023-01-23T14:14:37;101312.80;;;9.86
65823;BMP180;52585;47.566;19.056;2023-01-23T14:17:23;101315.80;;;9.82
65823;BMP180;52585;47.566;19.056;2023-01-23T14:19:56;101317.80;;;9.80
65823;BMP180;52585;47.566;19.056;2023-01-23T14:22:28;101319.80;;;9.80
65823;BMP180;52585;47.566;19.056;2023-01-23T14:24:55;101317.80;;;9.80
65823;BMP180;52585;47.566;19.056;2023-01-23T14:27:30;101317.40;;;9.80
65823;BMP180;52585;47.566;19.056;2023-01-23T14:30:02;101321.00;;;9.80
65823;BMP180;52585;47.566;19.056;2023-01-23T14:32:33;101320.20;;;9.78
65823;BMP180;52585;47.566;19.056;2023-01-23T14:34:58;101318.80;;;9.70
65823;BMP180;52585;47.566;19.056;2023-01-23T14:37:26;101321.00;;;9.70
65823;BMP180;52585;47.566;19.056;2023-01-23T14:39:55;101322.40;;;9.70
65823;BMP180;52585;47.566;19.056;2023-01-23T14:42:27;101319.60;;;9.70
65823;BMP180;52585;47.566;19.056;2023-01-23T14:44:55;101318.80;;;9.70
65823;BMP180;52585;47.566;19.056;2023-01-23T14:47:25;101322.40;;;9.70
65823;BMP180;52585;47.566;19.056;2023-01-23T14:49:52;101328.60;;;9.70
65823;BMP180;52585;47.566;19.056;2023-01-23T14:52:28;101328.60;;;9.60
65823;BMP180;52585;47.566;19.056;2023-01-23T14:54:56;101325.40;;;9.60
65823;BMP180;52585;47.566;19.056;2023-01-23T14:57:24;101329.20;;;9.58
65823;BMP180;52585;47.566;19.056;2023-01-23T14:59:56;101332.80;;;9.50
65823;BMP180;52585;47.566;19.056;2023-01-23T15:07:51;101344.20;;;9.48
65823;BMP180;52585;47.566;19.056;2023-01-23T15:15:55;101346.00;;;9.40
65823;BMP180;52585;47.566;19.056;2023-01-23T15:18:26;101347.00;;;9.32
65823;BMP180;52585;47.566;19.056;2023-01-23T15:21:00;101355.00;;;9.30
65823;BMP180;52585;47.566;19.056;2023-01-23T15:23:35;101352.80;;;9.30
65823;BMP180;52585;47.566;19.056;2023-01-23T15:26:21;101348.60;;;9.24
65823;BMP180;52585;47.566;19.056;2023-01-23T15:28:55;101349.60;;;9.20
65823;BMP180;52585;47.566;19.056;2023-01-23T15:31:33;101348.80;;;9.20
65823;BMP180;52585;47.566;19.056;2023-01-23T15:44:42;101349.00;;;9.10
65823;BMP180;52585;47.566;19.056;2023-01-23T15:47:09;101355.60;;;9.02
65823;BMP180;52585;47.566;19.056;2023-01-23T15:49:38;101355.20;;;9.00
65823;BMP180;52585;47.566;19.056;2023-01-23T15:52:50;101361.60;;;9.00
65823;BMP180;52585;47.566;19.056;2023-01-23T15:55:18;101370.60;;;8.92
65823;BMP180;52585;47.566;19.056;2023-01-23T15:57:44;101364.60;;;8.90
65823;BMP180;52585;47.566;19.056;2023-01-23T16:00:24;101369.00;;;8.90
65823;BMP180;52585;47.566;19.056;2023-01-23T16:02:52;101365.20;;;8.88
65823;BMP180;52585;47.566;19.056;2023-01-23T16:05:24;101363.80;;;8.82
65823;BMP180;52585;47.566;19.056;2023-01-23T16:07:51;101371.20;;;8.80
65823;BMP180;52585;47.566;19.056;2023-01-23T16:10:35;101368.80;;;8.80
65823;BMP180;52585;47.566;19.056;2023-01-23T16:13:02;101370.60;;;8.74
65823;BMP180;52585;47.566;19.056;2023-01-23T16:15:33;101372.80;;;8.70